Time;durP1;ratioP1;P1;durP2;ratioP2;P2;SDS_P1;SDS_P2;PMS_P1;PMS_P2;Temp;Humidity;BMP_temperature;BMP_pressure;BME280_temperature;BME280_humidity;BME280_pressure;Samples;Min_cycle;Max_cycle;Signal;HPM_P1;HPM_P2
2021/10/29 00:01:41;;;;;;;35.10;21.00;;;;;;;10.43;79.51;100589.42;116493;1201;138058;-64
2021/10/29 00:04:09;;;;;;;32.10;19.80;;;;;;;10.44;79.75;100588.40;116727;1200;22287;-64
2021/10/29 00:06:39;;;;;;;32.00;20.30;;;;;;;10.45;79.68;100587.84;116533;1201;138920;-64
2021/10/29 00:09:16;;;;;;;34.80;19.80;;;;;;;10.47;79.81;100587.23;116667;1201;23218;-64
2021/10/29 00:11:44;;;;;;;27.90;18.40;;;;;;;10.48;79.99;100589.23;116554;1201;138479;-63
2021/10/29 00:14:12;;;;;;;31.80;19.50;;;;;;;10.51;80.03;100590.62;116658;1201;22227;-64
2021/10/29 00:16:41;;;;;;;29.50;19.20;;;;;;;10.53;80.02;100591.54;116695;1201;22303;-64
2021/10/29 00:19:09;;;;;;;32.40;18.90;;;;;;;10.56;80.09;100582.77;116476;1201;138412;-64
2021/10/29 00:21:37;;;;;;;32.30;18.90;;;;;;;10.59;80.30;100582.65;116557;1202;22360;-64
2021/10/29 00:24:06;;;;;;;30.50;19.60;;;;;;;10.61;80.14;100582.66;116520;1200;139059;-63
2021/10/29 00:26:34;;;;;;;31.80;19.70;;;;;;;10.63;80.45;100577.98;116661;1202;23090;-64
2021/10/29 00:29:02;;;;;;;28.70;18.30;;;;;;;10.66;80.31;100575.94;116674;1202;22369;-63
2021/10/29 00:31:30;;;;;;;32.10;19.50;;;;;;;10.69;80.20;100576.63;116551;1202;137903;-64
2021/10/29 00:33:59;;;;;;;31.90;19.90;;;;;;;10.70;80.08;100574.38;116628;1202;22298;-64
2021/10/29 00:36:27;;;;;;;31.30;18.50;;;;;;;10.70;79.77;100576.61;116565;1195;138030;-64
2021/10/29 00:38:55;;;;;;;27.40;18.30;;;;;;;10.69;79.72;100578.92;116672;1202;23136;-63
2021/10/29 00:41:24;;;;;;;33.70;20.40;;;;;;;10.67;79.44;100580.11;116629;1202;22403;-63
2021/10/29 00:43:52;;;;;;;29.90;20.10;;;;;;;10.66;79.44;100583.98;116430;1200;137948;-63
2021/10/29 00:46:21;;;;;;;32.30;19.30;;;;;;;10.63;79.27;100584.31;116528;1202;22357;-64
2021/10/29 00:48:52;;;;;;;32.30;19.00;;;;;;;10.62;79.32;100590.15;116498;1201;138874;-63
2021/10/29 00:51:20;;;;;;;29.40;18.10;;;;;;;10.61;79.44;100594.88;116721;1200;22833;-64
2021/10/29 00:53:49;;;;;;;28.70;19.50;;;;;;;10.59;79.55;100595.10;116570;1200;138067;-63
2021/10/29 00:56:17;;;;;;;29.70;18.20;;;;;;;10.58;79.51;100594.61;116745;1201;22428;-64
2021/10/29 00:58:45;;;;;;;36.80;19.60;;;;;;;10.56;79.52;100597.95;116730;1201;22323;-63
2021/10/29 01:01:14;;;;;;;31.20;18.90;;;;;;;10.54;79.36;100595.92;116630;1201;138692;-63
2021/10/29 01:03:42;;;;;;;30.30;18.90;;;;;;;10.51;79.56;100588.56;116711;1200;22248;-63
2021/10/29 01:06:10;;;;;;;33.40;20.00;;;;;;;10.50;79.35;100585.30;116564;1200;138557;-63
2021/10/29 01:08:40;;;;;;;32.50;21.00;;;;;;;10.47;79.21;100585.60;116526;1202;22350;-63
2021/10/29 01:11:13;;;;;;;35.60;20.70;;;;;;;10.44;79.16;100587.22;116689;1201;22141;-64
2021/10/29 01:13:45;;;;;;;33.40;21.30;;;;;;;10.42;79.20;100587.13;116550;1201;138701;-64
2021/10/29 01:16:14;;;;;;;33.80;20.70;;;;;;;10.38;79.29;100588.58;116629;1201;22373;-63
2021/10/29 01:18:42;;;;;;;31.00;21.50;;;;;;;10.35;79.42;100588.98;116522;1201;137738;-63
2021/10/29 01:21:10;;;;;;;33.90;22.00;;;;;;;10.33;79.44;100588.05;116571;1200;23704;-64
2021/10/29 01:23:39;;;;;;;30.90;19.30;;;;;;;10.31;79.53;100586.23;116609;1201;22298;-63
2021/10/29 01:26:14;;;;;;;37.00;20.80;;;;;;;10.27;79.33;100584.23;116534;1201;137933;-64
2021/10/29 01:28:43;;;;;;;36.50;19.80;;;;;;;10.23;79.36;100588.49;116725;1193;22320;-64
2021/10/29 01:31:12;;;;;;;37.10;20.40;;;;;;;10.19;79.36;100590.11;116611;1201;138114;-63
2021/10/29 01:33:41;;;;;;;36.40;20.20;;;;;;;10.15;79.48;100589.64;116599;1201;22825;-62
2021/10/29 01:36:09;;;;;;;32.70;19.40;;;;;;;10.11;79.47;100589.80;116454;1201;139478;-62
2021/10/29 01:38:41;;;;;;;33.60;20.60;;;;;;;10.07;79.28;100591.89;116564;1202;22319;-62
2021/10/29 01:41:10;;;;;;;31.30;18.70;;;;;;;10.03;79.43;100594.35;116680;1201;23259;-63
2021/10/29 01:43:43;;;;;;;33.70;20.20;;;;;;;9.99;79.46;100592.80;116443;1202;140745;-63
2021/10/29 01:46:11;;;;;;;32.70;19.40;;;;;;;9.95;79.61;100592.05;116517;1201;22324;-63
2021/10/29 01:48:50;;;;;;;30.40;20.40;;;;;;;9.90;79.48;100588.81;116537;1193;138976;-63
2021/10/29 01:51:18;;;;;;;31.40;19.70;;;;;;;9.88;79.32;100594.23;116681;1201;22370;-63
2021/10/29 01:53:47;;;;;;;34.60;20.00;;;;;;;9.84;79.46;100597.00;116607;1201;137924;-62
2021/10/29 01:56:15;;;;;;;36.30;19.50;;;;;;;9.80;79.54;100596.90;116705;1200;22443;-62
2021/10/29 01:58:45;;;;;;;36.30;19.60;;;;;;;9.76;79.72;100596.69;116683;1201;22295;-62
2021/10/29 02:01:13;;;;;;;32.10;20.50;;;;;;;9.74;79.94;100593.11;116567;1201;137895;-63
2021/10/29 02:03:42;;;;;;;35.60;20.50;;;;;;;9.72;79.92;100593.25;116584;1187;22979;-63
2021/10/29 02:06:10;;;;;;;36.10;19.80;;;;;;;9.69;79.86;100594.37;116563;1201;138479;-62
2021/10/29 02:08:39;;;;;;;30.20;19.90;;;;;;;9.65;80.01;100594.44;116600;1202;22165;-63
2021/10/29 02:11:07;;;;;;;32.70;19.30;;;;;;;9.63;80.14;100595.50;116549;1201;22380;-63
2021/10/29 02:13:35;;;;;;;32.00;20.10;;;;;;;9.61;79.88;100596.19;116495;1201;138663;-63
2021/10/29 02:16:04;;;;;;;32.40;20.70;;;;;;;9.57;80.07;100600.48;116591;1201;22328;-63
2021/10/29 02:18:32;;;;;;;35.60;21.90;;;;;;;9.53;80.13;100600.73;116435;1201;138213;-62
2021/10/29 02:21:00;;;;;;;36.00;21.70;;;;;;;9.52;80.22;100605.30;116610;1195;22368;-63
2021/10/29 02:23:28;;;;;;;32.10;20.40;;;;;;;9.51;80.49;100609.14;116607;1201;22360;-63
2021/10/29 02:25:57;;;;;;;33.60;21.20;;;;;;;9.49;80.43;100612.51;116510;1201;137810;-63
2021/10/29 02:28:25;;;;;;;31.80;21.40;;;;;;;9.48;80.35;100612.89;116566;1201;22308;-63
2021/10/29 02:30:53;;;;;;;31.90;19.40;;;;;;;9.45;80.48;100610.73;116421;1201;139519;-63
2021/10/29 02:33:21;;;;;;;32.70;19.40;;;;;;;9.46;80.53;100618.39;116559;1202;23504;-63
2021/10/29 02:35:50;;;;;;;33.20;19.40;;;;;;;9.46;80.47;100615.80;116456;1202;139345;-62
2021/10/29 02:38:19;;;;;;;28.80;19.00;;;;;;;9.45;80.45;100611.73;116664;1201;23461;-63
2021/10/29 02:40:48;;;;;;;32.80;19.50;;;;;;;9.43;80.40;100610.00;116599;1201;22372;-62
2021/10/29 02:43:16;;;;;;;26.30;18.60;;;;;;;9.41;80.26;100610.27;116451;1196;138447;-63
2021/10/29 02:45:44;;;;;;;32.60;20.80;;;;;;;9.37;80.24;100608.29;116693;1201;22968;-63
2021/10/29 02:48:12;;;;;;;31.20;18.90;;;;;;;9.37;80.41;100617.39;116494;1201;139139;-62
2021/10/29 02:50:40;;;;;;;31.70;20.50;;;;;;;9.36;80.31;100616.86;116634;1201;22346;-63
2021/10/29 02:53:08;;;;;;;31.30;19.00;;;;;;;9.33;80.15;100617.30;116620;1201;22406;-63
2021/10/29 02:55:36;;;;;;;33.70;19.90;;;;;;;9.28;79.86;100619.77;116575;1200;138309;-63
2021/10/29 02:58:05;;;;;;;36.90;20.80;;;;;;;9.24;79.81;100620.27;116761;1201;22278;-63
2021/10/29 03:00:33;;;;;;;39.90;20.30;;;;;;;9.18;79.86;100620.48;116582;1193;138609;-63
2021/10/29 03:03:01;;;;;;;32.60;19.50;;;;;;;9.15;79.81;100622.76;116653;1201;23048;-64
2021/10/29 03:05:30;;;;;;;27.40;17.50;;;;;;;9.10;79.57;100624.93;116701;1200;22117;-63
2021/10/29 03:07:58;;;;;;;31.90;18.90;;;;;;;9.04;79.06;100624.98;116509;1196;139023;-63
2021/10/29 03:10:26;;;;;;;33.50;20.20;;;;;;;8.96;78.81;100625.63;116671;1202;23089;-63
2021/10/29 03:12:55;;;;;;;32.30;19.50;;;;;;;8.88;78.85;100628.70;116521;1201;138076;-63
2021/10/29 03:15:23;;;;;;;36.90;18.80;;;;;;;8.79;78.52;100622.10;116693;1201;22332;-63
2021/10/29 03:17:51;;;;;;;30.00;17.50;;;;;;;8.72;78.33;100627.59;116558;1195;138216;-62
2021/10/29 03:20:19;;;;;;;28.50;17.80;;;;;;;8.64;78.28;100629.48;116658;1201;22184;-63
2021/10/29 03:22:47;;;;;;;29.00;18.40;;;;;;;8.55;78.16;100631.25;116645;1201;22268;-63
2021/10/29 03:25:16;;;;;;;32.40;17.60;;;;;;;8.46;78.04;100627.79;116556;1201;139378;-63
2021/10/29 03:27:44;;;;;;;29.60;18.10;;;;;;;8.38;77.69;100623.61;116702;1200;22422;-63
2021/10/29 03:30:12;;;;;;;31.10;17.40;;;;;;;8.29;77.54;100623.58;116539;1201;138309;-63
2021/10/29 03:32:45;;;;;;;27.20;17.80;;;;;;;8.21;77.34;100623.34;116629;1201;23219;-63
2021/10/29 03:35:13;;;;;;;27.30;17.30;;;;;;;8.13;77.43;100624.90;116651;1201;22526;-64
2021/10/29 03:41:17;;;;;;;29.00;17.10;;;;;;;7.97;77.08;100628.09;116710;1201;22343;-64
2021/10/29 03:46:25;;;;;;;26.70;14.50;;;;;;;7.83;77.13;100629.13;116719;1201;22187;-63
2021/10/29 03:55:59;;;;;;;27.80;16.40;;;;;;;7.55;76.73;100639.91;116595;1200;139351;-63
2021/10/29 03:58:27;;;;;;;29.30;16.30;;;;;;;7.50;76.82;100641.35;116625;1201;22454;-63
2021/10/29 04:00:55;;;;;;;27.60;16.10;;;;;;;7.44;76.81;100644.48;116618;1200;138084;-63
2021/10/29 04:03:23;;;;;;;31.80;17.20;;;;;;;7.38;76.88;100642.60;116664;1201;22301;-63
2021/10/29 04:05:51;;;;;;;31.90;17.70;;;;;;;7.34;77.01;100643.01;116594;1200;138151;-62
2021/10/29 04:08:19;;;;;;;30.60;18.60;;;;;;;7.31;77.02;100645.21;116667;1201;22384;-62
2021/10/29 04:10:49;;;;;;;29.00;18.60;;;;;;;7.26;76.82;100645.48;116667;1200;22231;-63
2021/10/29 04:13:18;;;;;;;28.70;18.50;;;;;;;7.21;76.97;100645.29;116577;1201;138163;-62
2021/10/29 04:15:47;;;;;;;43.50;19.20;;;;;;;7.17;77.35;100647.25;116701;1200;22346;-63
2021/10/29 04:18:15;;;;;;;29.10;17.60;;;;;;;7.13;77.26;100647.86;116555;1201;139088;-63
2021/10/29 04:20:44;;;;;;;34.10;17.50;;;;;;;7.09;77.38;100650.48;116666;1200;22374;-63
2021/10/29 04:23:12;;;;;;;47.20;19.30;;;;;;;7.03;77.01;100652.91;116672;1201;22267;-63
2021/10/29 04:25:40;;;;;;;31.30;18.30;;;;;;;6.98;76.79;100649.91;116500;1201;139567;-63
2021/10/29 04:28:11;;;;;;;29.60;18.00;;;;;;;6.96;76.96;100655.39;116636;1199;22218;-63
2021/10/29 04:30:42;;;;;;;31.60;19.50;;;;;;;6.92;76.75;100658.05;116533;1201;139752;-63
2021/10/29 04:33:10;;;;;;;44.80;23.50;;;;;;;6.87;76.97;100662.52;116610;1201;22345;-63
2021/10/29 04:35:40;;;;;;;47.50;24.30;;;;;;;6.84;77.29;100663.68;116607;1201;23064;-63
2021/10/29 04:38:08;;;;;;;42.50;20.30;;;;;;;6.82;77.35;100671.08;116525;1201;137840;-63
2021/10/29 04:40:37;;;;;;;43.60;21.80;;;;;;;6.80;77.61;100670.91;113968;1195;22433;-62
2021/10/29 04:43:06;;;;;;;39.60;21.60;;;;;;;6.78;77.27;100671.59;116356;1186;138234;-63
2021/10/29 04:45:34;;;;;;;44.20;23.80;;;;;;;6.73;76.92;100675.05;116581;1202;22205;-63
2021/10/29 04:48:03;;;;;;;51.80;26.00;;;;;;;6.69;76.58;100677.94;116552;1201;139051;-63
2021/10/29 04:50:31;;;;;;;61.20;30.20;;;;;;;6.64;76.43;100681.30;116612;1195;23164;-63
2021/10/29 04:52:59;;;;;;;64.00;31.70;;;;;;;6.60;76.92;100682.13;116676;1201;22421;-63
2021/10/29 04:55:28;;;;;;;65.90;33.70;;;;;;;6.56;77.08;100687.30;116539;1201;138002;-63
2021/10/29 04:57:56;;;;;;;89.20;32.50;;;;;;;6.49;77.18;100689.33;116695;1201;22460;-63
2021/10/29 05:00:25;;;;;;;80.40;35.40;;;;;;;6.48;77.50;100688.67;116520;1200;138570;-63
2021/10/29 05:02:58;;;;;;;83.50;34.50;;;;;;;6.46;77.62;100691.57;116698;1200;22334;-63
2021/10/29 05:05:27;;;;;;;84.10;34.90;;;;;;;6.44;77.92;100694.86;116697;1201;22549;-63
2021/10/29 05:07:55;;;;;;;89.80;34.40;;;;;;;6.45;78.39;100698.40;116542;1201;138011;-63
2021/10/29 05:10:23;;;;;;;92.70;36.80;;;;;;;6.44;78.21;100700.98;116655;1200;23226;-63
2021/10/29 05:12:51;;;;;;;94.90;37.40;;;;;;;6.44;78.28;100703.18;116538;1201;139183;-62
2021/10/29 05:15:19;;;;;;;89.60;35.50;;;;;;;6.45;78.71;100702.81;116641;1200;22246;-62
2021/10/29 05:17:47;;;;;;;99.70;41.80;;;;;;;6.46;78.77;100701.65;116528;1201;138827;-62
2021/10/29 05:20:16;;;;;;;103.30;44.10;;;;;;;6.46;79.08;100706.86;116600;1201;22305;-62
2021/10/29 05:22:45;;;;;;;104.00;45.40;;;;;;;6.50;79.51;100710.61;116628;1201;22341;-63
2021/10/29 05:25:13;;;;;;;118.40;48.80;;;;;;;6.55;79.46;100709.67;116523;1200;138829;-63
2021/10/29 05:27:43;;;;;;;114.10;50.60;;;;;;;6.59;79.57;100710.02;116632;1201;22229;-63
2021/10/29 05:30:11;;;;;;;102.30;47.10;;;;;;;6.64;79.93;100711.54;116530;1201;139506;-62
2021/10/29 05:32:39;;;;;;;117.60;51.90;;;;;;;6.68;79.94;100712.17;116678;1201;22331;-63
2021/10/29 05:35:07;;;;;;;119.30;51.40;;;;;;;6.74;80.06;100710.20;116587;1201;22245;-63
2021/10/29 05:37:35;;;;;;;109.50;48.30;;;;;;;6.80;80.35;100713.55;116528;1201;138229;-64
2021/10/29 05:40:05;;;;;;;95.80;45.30;;;;;;;6.86;80.35;100718.32;116673;1201;22729;-64
2021/10/29 05:42:36;;;;;;;125.00;52.40;;;;;;;6.91;80.21;100719.25;116537;1201;139899;-65
2021/10/29 05:45:06;;;;;;;117.30;51.70;;;;;;;6.97;80.32;100715.09;116680;1201;22397;-64
2021/10/29 05:47:36;;;;;;;132.00;56.20;;;;;;;7.02;80.42;100714.90;116613;1201;22331;-64
2021/10/29 05:50:08;;;;;;;131.70;56.00;;;;;;;7.07;80.77;100715.64;116536;1200;138390;-64
2021/10/29 05:52:40;;;;;;;141.10;57.90;;;;;;;7.12;80.86;100716.98;116615;1201;22213;-63
2021/10/29 05:55:18;;;;;;;178.80;56.70;;;;;;;7.18;80.93;100722.35;116446;1201;138665;-65
2021/10/29 05:57:48;;;;;;;185.00;59.60;;;;;;;7.22;80.80;100725.77;116688;1201;23331;-64
2021/10/29 06:00:21;;;;;;;172.20;55.50;;;;;;;7.26;80.85;100730.23;116466;1200;138390;-64
2021/10/29 06:02:49;;;;;;;168.40;57.70;;;;;;;7.32;81.08;100729.95;116708;1201;22537;-65
2021/10/29 06:05:18;;;;;;;186.30;57.70;;;;;;;7.39;81.19;100728.69;116709;1185;23091;-65
2021/10/29 06:07:47;;;;;;;162.70;60.80;;;;;;;7.44;81.35;100727.08;116537;1201;138800;-64
2021/10/29 06:10:15;;;;;;;173.40;58.70;;;;;;;7.51;81.58;100727.74;116661;1197;22374;-64
2021/10/29 06:12:44;;;;;;;173.00;57.30;;;;;;;7.57;81.69;100726.71;116599;1201;138681;-64
2021/10/29 06:15:14;;;;;;;155.40;58.90;;;;;;;7.64;81.84;100730.29;116637;1201;22305;-65
2021/10/29 06:17:42;;;;;;;156.30;56.70;;;;;;;7.71;82.07;100734.46;116667;1201;23180;-64
2021/10/29 06:20:22;;;;;;;136.20;50.90;;;;;;;7.82;82.56;100736.58;116588;1200;138601;-65
2021/10/29 06:22:52;;;;;;;183.00;55.00;;;;;;;7.92;82.75;100743.45;116644;1200;22319;-64
2021/10/29 06:25:24;;;;;;;144.00;48.80;;;;;;;7.98;82.98;100742.19;116503;1201;139529;-64
2021/10/29 06:30:42;;;;;;;97.70;45.70;;;;;;;8.23;83.57;100751.00;116454;1202;138393;-64
2021/10/29 06:33:12;;;;;;;93.80;46.60;;;;;;;8.32;83.82;100750.13;116694;1197;22287;-64
2021/10/29 06:35:40;;;;;;;106.00;46.60;;;;;;;8.42;84.08;100745.70;116643;1201;22337;-64
2021/10/29 06:38:09;;;;;;;105.50;45.60;;;;;;;8.52;84.19;100747.90;116498;1201;138566;-64
2021/10/29 06:40:43;;;;;;;95.40;48.80;;;;;;;8.62;84.28;100750.00;116697;1201;22333;-64
2021/10/29 06:44:05;;;;;;;94.90;45.80;;;;;;;8.73;84.37;100748.31;116529;1201;141623;-64
2021/10/29 06:46:21;;;;;;;96.00;46.00;;;;;;;8.84;84.59;100745.78;116543;1201;22263;-65
2021/10/29 07:40:33;;;;;;;29.40;21.20;;;;;;;11.37;83.33;100770.50;116678;1201;23367;-59
2021/10/29 07:43:04;;;;;;;29.80;20.30;;;;;;;11.48;82.83;100774.81;116440;1200;138369;-58
2021/10/29 07:45:32;;;;;;;33.50;20.00;;;;;;;11.56;82.48;100770.36;116599;1200;22310;-59
2021/10/29 07:48:01;;;;;;;33.70;22.90;;;;;;;11.64;82.12;100771.75;116577;1202;22298;-58
2021/10/29 07:50:29;;;;;;;30.30;21.90;;;;;;;11.70;81.81;100770.19;116509;1201;138274;-59
2021/10/29 07:52:58;;;;;;;28.20;22.50;;;;;;;11.77;81.43;100769.90;116631;1186;22344;-58
2021/10/29 07:55:27;;;;;;;33.80;23.50;;;;;;;11.82;81.29;100771.84;116348;1201;139913;-59
2021/10/29 07:58:01;;;;;;;31.50;22.90;;;;;;;11.88;81.01;100773.06;116671;1197;22403;-59
2021/10/29 08:00:31;;;;;;;30.90;20.90;;;;;;;11.94;80.79;100772.48;116464;1201;138801;-59
2021/10/29 08:03:02;;;;;;;31.40;21.90;;;;;;;12.01;80.44;100771.95;116627;1201;22363;-59
2021/10/29 08:05:32;;;;;;;32.40;21.50;;;;;;;12.08;80.37;100778.58;116686;1201;22258;-59
2021/10/29 08:08:00;;;;;;;28.60;21.00;;;;;;;12.15;79.96;100779.98;116552;1186;138201;-58
2021/10/29 08:10:29;;;;;;;25.00;19.00;;;;;;;12.22;79.73;100777.77;116666;1200;22318;-58
2021/10/29 08:12:57;;;;;;;23.60;17.60;;;;;;;12.29;79.35;100779.77;116474;1201;139052;-58
2021/10/29 08:15:25;;;;;;;28.90;17.40;;;;;;;12.36;79.18;100779.90;116641;1201;22386;-58
2021/10/29 08:17:53;;;;;;;31.70;18.40;;;;;;;12.44;78.58;100776.05;116556;1195;22333;-58
2021/10/29 08:20:22;;;;;;;29.70;18.30;;;;;;;12.50;78.23;100778.51;116488;1185;138155;-58
2021/10/29 08:22:50;;;;;;;30.60;18.60;;;;;;;12.56;77.84;100779.23;116697;1201;22374;-59
2021/10/29 08:25:19;;;;;;;21.00;16.00;;;;;;;12.61;77.59;100779.01;116560;1200;138254;-58
2021/10/29 08:27:47;;;;;;;27.20;17.50;;;;;;;12.65;77.30;100781.58;116632;1201;23393;-59
2021/10/29 08:30:15;;;;;;;25.10;18.50;;;;;;;12.68;77.17;100781.25;116475;1201;139303;-59
2021/10/29 08:32:46;;;;;;;24.70;18.30;;;;;;;12.74;77.08;100784.75;116617;1201;22387;-61
2021/10/29 08:35:14;;;;;;;32.70;19.90;;;;;;;12.80;76.60;100787.13;116732;1201;22318;-60
2021/10/29 08:37:43;;;;;;;28.20;19.10;;;;;;;12.84;76.30;100784.25;116551;1201;138200;-60
2021/10/29 08:40:11;;;;;;;30.30;19.00;;;;;;;12.91;76.32;100786.04;116687;1200;22223;-59
2021/10/29 08:42:40;;;;;;;24.40;17.90;;;;;;;12.97;75.93;100784.96;116498;1201;138921;-58
2021/10/29 08:45:09;;;;;;;21.30;15.10;;;;;;;13.01;75.55;100782.46;116674;1201;22365;-59
2021/10/29 08:47:39;;;;;;;17.80;13.90;;;;;;;13.05;75.48;100781.02;116550;1202;22893;-59
2021/10/29 08:50:09;;;;;;;16.30;11.30;;;;;;;13.10;75.14;100779.42;116465;1201;138490;-59
2021/10/29 08:52:39;;;;;;;17.70;11.60;;;;;;;13.15;74.64;100781.42;116711;1201;22300;-59
2021/10/29 08:55:08;;;;;;;15.50;11.50;;;;;;;13.18;74.46;100781.57;116497;1201;138114;-59
2021/10/29 08:57:36;;;;;;;18.30;13.10;;;;;;;13.22;74.23;100777.38;116579;1201;23150;-59
2021/10/29 09:00:12;;;;;;;20.00;14.10;;;;;;;13.27;73.90;100776.66;116595;1199;22360;-59
2021/10/29 09:02:44;;;;;;;21.10;13.50;;;;;;;13.30;73.55;100778.35;116461;1201;138565;-59
2021/10/29 09:05:23;;;;;;;13.50;10.10;;;;;;;13.34;73.56;100776.90;116665;1201;22334;-56
2021/10/29 09:08:07;;;;;;;13.50;9.20;;;;;;;13.38;73.05;100777.21;116559;1200;138204;-59
2021/10/29 09:32:55;;;;;;;11.70;8.80;;;;;;;13.67;69.70;100772.70;116526;1199;138410;-58
2021/10/29 09:35:25;;;;;;;11.20;9.40;;;;;;;13.71;69.14;100774.66;116596;1201;22307;-58
2021/10/29 09:37:54;;;;;;;13.10;8.60;;;;;;;13.74;69.17;100773.89;116438;1201;138358;-58
2021/10/29 09:40:54;;;;;;;11.20;8.40;;;;;;;13.78;68.82;100773.47;116369;1189;22364;-55
2021/10/29 09:43:23;;;;;;;11.80;7.90;;;;;;;13.82;68.42;100774.41;116482;1202;138165;-56
2021/10/29 09:46:01;;;;;;;12.60;8.40;;;;;;;13.85;68.28;100769.63;116610;1202;22231;-56
2021/10/29 09:48:45;;;;;;;21.30;9.80;;;;;;;13.90;68.33;100770.14;116547;1201;139253;-56
2021/10/29 09:51:20;;;;;;;12.40;8.60;;;;;;;13.95;68.42;100769.85;116629;1200;23000;-56
2021/10/29 09:54:14;;;;;;;18.30;7.50;;;;;;;13.99;68.31;100767.67;116529;1201;22252;-54
2021/10/29 09:57:03;;;;;;;13.80;8.30;;;;;;;14.03;68.29;100770.18;116406;1201;138674;-54
2021/10/29 09:59:34;;;;;;;12.80;9.50;;;;;;;14.06;68.20;100769.73;116614;1201;22320;-55
2021/10/29 10:02:03;;;;;;;15.70;7.00;;;;;;;14.08;67.98;100766.93;116473;1201;139361;-55
2021/10/29 10:04:34;;;;;;;9.90;6.10;;;;;;;14.10;67.55;100765.50;116584;1200;22333;-55
2021/10/29 10:07:03;;;;;;;4.90;3.90;;;;;;;14.12;66.87;100765.91;116408;1197;138263;-54
2021/10/29 10:09:31;;;;;;;5.60;2.80;;;;;;;14.14;65.69;100766.59;116603;1200;23568;-55
2021/10/29 10:11:59;;;;;;;2.70;1.60;;;;;;;14.17;64.68;100764.37;116566;1201;23421;-55
2021/10/29 10:14:28;;;;;;;5.00;2.50;;;;;;;14.20;63.91;100760.69;116307;1201;137985;-55
2021/10/29 10:16:58;;;;;;;4.90;2.50;;;;;;;14.22;63.19;100761.98;116401;1201;22397;-55
2021/10/29 10:19:26;;;;;;;8.50;5.80;;;;;;;14.24;63.08;100760.71;116344;1200;138804;-55
2021/10/29 10:21:56;;;;;;;27.40;18.70;;;;;;;14.27;63.64;100758.78;116556;1201;22847;-54
2021/10/29 10:24:27;;;;;;;22.10;10.20;;;;;;;14.29;63.55;100763.23;116400;1201;139166;-57
2021/10/29 10:27:25;;;;;;;7.60;5.10;;;;;;;14.32;63.38;100764.65;116654;1201;23101;-55
2021/10/29 10:48:49;;;;;;;13.80;7.20;;;;;;;14.43;64.68;100761.27;116371;1201;139325;-63
2021/10/29 10:54:16;;;;;;;11.40;8.00;;;;;;;14.46;63.97;100763.23;116573;1201;22338;-65
2021/10/29 10:58:01;;;;;;;10.20;7.50;;;;;;;14.51;63.81;100764.29;110935;1214;545512;-64
2021/10/29 11:00:42;;;;;;;12.50;7.60;;;;;;;14.49;64.07;100760.16;111667;1200;137089;-64
2021/10/29 11:07:00;;;;;;;16.10;8.30;;;;;;;14.52;63.82;100756.80;115512;1209;22771;-64
2021/10/29 11:10:12;;;;;;;14.60;7.90;;;;;;;14.52;63.55;100757.14;115583;1209;22187;-64
2021/10/29 11:12:40;;;;;;;18.40;8.90;;;;;;;14.54;63.67;100759.45;115599;1210;22279;-65
2021/10/29 11:15:19;;;;;;;11.50;7.50;;;;;;;14.55;63.39;100753.95;115507;1211;137873;-64
2021/10/29 11:17:59;;;;;;;10.30;6.50;;;;;;;14.56;63.16;100757.02;115625;1210;22170;-65
2021/10/29 11:21:01;;;;;;;12.40;7.50;;;;;;;14.57;62.76;100756.64;115504;1209;138803;-63
2021/10/29 11:23:27;;;;;;;;;;;;;;;14.58;62.86;100755.55;115654;1210;23500;-63
2021/10/29 11:26:06;;;;;;;6.80;5.90;;;;;;;14.59;62.62;100756.88;115485;1210;126261;-64
2021/10/29 11:28:42;;;;;;;8.60;5.90;;;;;;;14.59;62.40;100754.02;115580;1210;22311;-62
2021/10/29 11:31:12;;;;;;;8.20;5.70;;;;;;;14.59;62.02;100754.09;115499;1210;137907;-62
2021/10/29 11:33:42;;;;;;;10.00;5.70;;;;;;;14.61;62.14;100756.23;115657;1210;22259;-62
2021/10/29 11:36:15;;;;;;;10.60;6.00;;;;;;;14.62;62.08;100755.38;115644;1210;22352;-64
2021/10/29 11:38:44;;;;;;;12.00;6.80;;;;;;;14.61;61.76;100755.20;115567;1210;138092;-63
2021/10/29 11:41:18;;;;;;;10.40;6.60;;;;;;;14.64;61.79;100758.27;111942;1209;24062;-60
2021/10/29 11:43:46;;;;;;;12.80;6.50;;;;;;;14.65;61.85;100759.55;111570;1206;137657;-60
2021/10/29 11:46:15;;;;;;;16.00;7.10;;;;;;;14.66;61.90;100757.96;115933;1206;23676;-58
2021/10/29 11:48:50;;;;;;;15.60;8.00;;;;;;;14.66;62.02;100761.16;115937;1206;22262;-58
2021/10/29 11:51:20;;;;;;;12.10;7.80;;;;;;;14.67;62.04;100761.94;115916;1206;137987;-59
2021/10/29 11:53:55;;;;;;;16.90;7.40;;;;;;;14.68;61.89;100758.16;115989;1206;22244;-59
2021/10/29 12:07:26;;;;;;;11.00;6.70;;;;;;;14.76;60.61;100753.54;115695;1207;137275;-59
2021/10/29 12:10:05;;;;;;;9.00;6.30;;;;;;;14.76;60.56;100751.79;115606;1209;22251;-59
2021/10/29 12:12:45;;;;;;;10.90;7.10;;;;;;;14.78;60.59;100747.73;115609;1211;22301;-59
2021/10/29 12:15:15;;;;;;;10.60;7.10;;;;;;;14.79;60.42;100748.48;115553;1209;137999;-59
2021/10/29 12:18:03;;;;;;;12.70;6.40;;;;;;;14.79;60.52;100746.89;115695;1206;23104;-60
2021/10/29 12:20:39;;;;;;;13.60;7.10;;;;;;;14.79;60.25;100746.22;115538;1209;138213;-59
2021/10/29 12:23:30;;;;;;;12.30;6.80;;;;;;;14.79;60.12;100745.30;115730;1209;22179;-59
2021/10/29 12:26:05;;;;;;;12.70;6.90;;;;;;;14.79;60.22;100742.22;115458;1210;137166;-59
2021/10/29 12:28:37;;;;;;;15.20;7.00;;;;;;;14.76;60.11;100734.23;115652;1209;22333;-58
2021/10/29 12:31:21;;;;;;;16.60;7.90;;;;;;;14.75;60.08;100735.19;115545;1206;138276;-59
2021/10/29 12:36:59;;;;;;;9.80;6.40;;;;;;;14.69;59.52;100736.52;115758;1209;22198;-59
2021/10/29 12:53:48;;;;;;;14.80;8.20;;;;;;;14.69;59.67;100721.58;115967;1206;23093;-64
2021/10/29 13:01:58;;;;;;;13.80;6.40;;;;;;;14.72;59.17;100719.69;115887;1206;137700;-64
2021/10/29 13:04:44;;;;;;;12.50;6.20;;;;;;;14.73;59.34;100719.70;116002;1206;22290;-64
2021/10/29 13:07:13;;;;;;;8.50;5.40;;;;;;;14.74;58.78;100718.06;115858;1206;137580;-63
2021/10/29 13:09:41;;;;;;;13.20;7.10;;;;;;;14.76;58.28;100720.60;115911;1206;22248;-64
2021/10/29 13:12:39;;;;;;;16.90;9.50;;;;;;;14.77;58.71;100713.89;116556;1203;22259;-64
2021/10/29 13:15:11;;;;;;;17.70;8.80;;;;;;;14.78;58.78;100717.23;116164;1202;136989;-64
2021/10/29 13:17:51;;;;;;;13.60;8.20;;;;;;;14.77;58.87;100715.09;116150;1203;22240;-64
2021/10/29 13:26:17;;;;;;;22.80;10.60;;;;;;;14.74;58.89;100716.30;115997;1203;137518;-64
2021/10/29 13:54:26;;;;;;;27.50;17.30;;;;;;;14.40;58.59;100718.77;115905;1205;22256;-58
2021/10/29 14:02:19;;;;;;;98.10;52.00;;;;;;;14.28;59.94;100717.22;115799;1204;137899;-58
2021/10/29 14:24:31;;;;;;;24.20;14.50;;;;;;;13.92;61.32;100709.02;116113;1203;22344;-58
2021/10/29 14:29:51;;;;;;;25.80;14.40;;;;;;;13.83;61.61;100708.63;116177;1203;22327;-57
2021/10/29 14:32:29;;;;;;;28.00;16.00;;;;;;;13.78;61.66;100707.06;115990;1202;138136;-58
2021/10/29 14:34:59;;;;;;;80.90;45.80;;;;;;;13.71;61.80;100708.80;116073;1205;22301;-57
2021/10/29 14:40:10;;;;;;;118.80;52.40;;;;;;;13.53;61.80;100707.70;116037;1203;138683;-63
2021/10/29 14:45:23;;;;;;;168.30;86.80;;;;;;;13.28;62.15;100708.73;115963;1203;137952;-65
2021/10/29 14:48:14;;;;;;;192.30;95.20;;;;;;;13.11;62.36;100705.34;116100;1203;23121;-68
2021/10/29 14:53:41;;;;;;;144.20;74.40;;;;;;;12.77;62.69;100712.08;116081;1204;22895;-63
2021/10/29 15:04:28;;;;;;;157.80;70.80;;;;;;;12.01;63.49;100717.49;116175;1203;22296;-64
2021/10/29 15:14:46;;;;;;;148.40;71.10;;;;;;;11.83;63.86;100719.21;116033;1203;22261;-64